sensor_id;sensor_type;location;lat;lon;timestamp;pressure;altitude;pressure_sealevel;temperature;humidity
55592;BME280;41454;53.396;-1.510;2023-07-30T00:02:23;99065.72;;;13.02;100.00
55592;BME280;41454;53.396;-1.510;2023-07-30T00:04:50;99068.13;;;13.06;100.00
55592;BME280;41454;53.396;-1.510;2023-07-30T00:07:17;99069.02;;;12.82;100.00
55592;BME280;41454;53.396;-1.510;2023-07-30T00:09:44;99071.48;;;12.83;100.00
55592;BME280;41454;53.396;-1.510;2023-07-30T00:12:11;99070.28;;;12.50;100.00
55592;BME280;41454;53.396;-1.510;2023-07-30T00:14:38;99070.50;;;12.57;100.00
55592;BME280;41454;53.396;-1.510;2023-07-30T00:17:06;99063.55;;;12.18;100.00
55592;BME280;41454;53.396;-1.510;2023-07-30T00:19:33;99061.63;;;12.57;100.00
55592;BME280;41454;53.396;-1.510;2023-07-30T00:22:01;99065.09;;;12.38;100.00
55592;BME280;41454;53.396;-1.510;2023-07-30T00:24:28;99065.51;;;13.02;100.00
55592;BME280;41454;53.396;-1.510;2023-07-30T00:26:55;99064.39;;;13.33;100.00
55592;BME280;41454;53.396;-1.510;2023-07-30T00:29:22;99064.82;;;13.21;100.00
55592;BME280;41454;53.396;-1.510;2023-07-30T00:31:49;99062.84;;;12.96;100.00
55592;BME280;41454;53.396;-1.510;2023-07-30T00:34:16;99061.88;;;13.13;100.00
55592;BME280;41454;53.396;-1.510;2023-07-30T00:36:43;99057.77;;;13.39;100.00
55592;BME280;41454;53.396;-1.510;2023-07-30T00:39:11;99054.11;;;13.21;100.00
55592;BME280;41454;53.396;-1.510;2023-07-30T00:41:38;99060.28;;;12.95;100.00
55592;BME280;41454;53.396;-1.510;2023-07-30T00:44:04;99056.52;;;13.33;100.00
55592;BME280;41454;53.396;-1.510;2023-07-30T00:46:32;99057.54;;;13.03;100.00
55592;BME280;41454;53.396;-1.510;2023-07-30T00:48:59;99054.95;;;12.41;100.00
55592;BME280;41454;53.396;-1.510;2023-07-30T00:51:27;99057.59;;;12.96;100.00
55592;BME280;41454;53.396;-1.510;2023-07-30T00:53:56;99054.63;;;12.72;100.00
55592;BME280;41454;53.396;-1.510;2023-07-30T00:56:24;99045.11;;;13.36;100.00
55592;BME280;41454;53.396;-1.510;2023-07-30T00:58:52;99034.67;;;12.82;100.00
55592;BME280;41454;53.396;-1.510;2023-07-30T01:01:19;99039.42;;;12.50;100.00
55592;BME280;41454;53.396;-1.510;2023-07-30T01:03:47;99041.68;;;12.67;100.00
55592;BME280;41454;53.396;-1.510;2023-07-30T01:06:14;99048.18;;;12.96;100.00
55592;BME280;41454;53.396;-1.510;2023-07-30T01:08:41;99052.41;;;13.65;100.00
55592;BME280;41454;53.396;-1.510;2023-07-30T01:11:09;99048.59;;;13.45;100.00
55592;BME280;41454;53.396;-1.510;2023-07-30T01:13:38;99049.59;;;13.69;100.00
55592;BME280;41454;53.396;-1.510;2023-07-30T01:16:07;99053.91;;;14.07;100.00
55592;BME280;41454;53.396;-1.510;2023-07-30T01:18:34;99050.92;;;13.68;100.00
55592;BME280;41454;53.396;-1.510;2023-07-30T01:21:01;99050.78;;;13.74;100.00
55592;BME280;41454;53.396;-1.510;2023-07-30T01:23:29;99051.62;;;13.77;100.00
55592;BME280;41454;53.396;-1.510;2023-07-30T01:26:01;99049.42;;;13.74;100.00
55592;BME280;41454;53.396;-1.510;2023-07-30T01:28:33;99060.19;;;13.73;100.00
55592;BME280;41454;53.396;-1.510;2023-07-30T01:31:05;99054.54;;;13.03;100.00
55592;BME280;41454;53.396;-1.510;2023-07-30T01:33:33;99054.28;;;13.27;100.00
55592;BME280;41454;53.396;-1.510;2023-07-30T01:36:01;99052.79;;;12.75;100.00
55592;BME280;41454;53.396;-1.510;2023-07-30T01:38:30;99047.21;;;12.52;100.00
55592;BME280;41454;53.396;-1.510;2023-07-30T01:40:57;99049.20;;;12.65;100.00
55592;BME280;41454;53.396;-1.510;2023-07-30T01:43:24;99045.07;;;12.62;100.00
55592;BME280;41454;53.396;-1.510;2023-07-30T01:45:51;99039.05;;;12.64;100.00
55592;BME280;41454;53.396;-1.510;2023-07-30T01:48:18;99042.64;;;12.77;100.00
55592;BME280;41454;53.396;-1.510;2023-07-30T01:50:45;99044.13;;;12.69;100.00
55592;BME280;41454;53.396;-1.510;2023-07-30T01:53:12;99038.82;;;13.32;100.00
55592;BME280;41454;53.396;-1.510;2023-07-30T01:55:39;99038.34;;;12.93;100.00
55592;BME280;41454;53.396;-1.510;2023-07-30T01:58:06;99037.40;;;13.07;100.00
55592;BME280;41454;53.396;-1.510;2023-07-30T02:00:33;99036.14;;;12.45;100.00
55592;BME280;41454;53.396;-1.510;2023-07-30T02:03:00;99044.29;;;12.95;100.00
55592;BME280;41454;53.396;-1.510;2023-07-30T02:05:28;99046.86;;;12.94;100.00
55592;BME280;41454;53.396;-1.510;2023-07-30T02:07:55;99053.68;;;12.29;100.00
55592;BME280;41454;53.396;-1.510;2023-07-30T02:10:24;99057.27;;;12.74;100.00
55592;BME280;41454;53.396;-1.510;2023-07-30T02:12:50;99046.62;;;12.44;100.00
55592;BME280;41454;53.396;-1.510;2023-07-30T02:15:17;99045.64;;;12.76;100.00
55592;BME280;41454;53.396;-1.510;2023-07-30T02:17:45;99038.03;;;12.71;100.00
55592;BME280;41454;53.396;-1.510;2023-07-30T02:20:11;99041.73;;;12.66;100.00
55592;BME280;41454;53.396;-1.510;2023-07-30T02:22:38;99036.93;;;12.08;100.00
55592;BME280;41454;53.396;-1.510;2023-07-30T02:25:06;99041.73;;;12.13;100.00
55592;BME280;41454;53.396;-1.510;2023-07-30T02:27:33;99043.16;;;11.79;100.00
55592;BME280;41454;53.396;-1.510;2023-07-30T02:30:00;99047.13;;;12.14;100.00
55592;BME280;41454;53.396;-1.510;2023-07-30T02:32:28;99039.79;;;12.06;100.00
55592;BME280;41454;53.396;-1.510;2023-07-30T02:34:55;99043.02;;;12.34;100.00
55592;BME280;41454;53.396;-1.510;2023-07-30T02:37:23;99045.63;;;12.36;100.00
55592;BME280;41454;53.396;-1.510;2023-07-30T02:39:50;99049.75;;;12.07;100.00
55592;BME280;41454;53.396;-1.510;2023-07-30T02:42:18;99038.05;;;12.29;100.00
55592;BME280;41454;53.396;-1.510;2023-07-30T02:44:44;99036.64;;;12.03;100.00
55592;BME280;41454;53.396;-1.510;2023-07-30T02:47:11;99033.45;;;11.80;100.00
55592;BME280;41454;53.396;-1.510;2023-07-30T02:49:39;99035.07;;;12.33;100.00
55592;BME280;41454;53.396;-1.510;2023-07-30T02:52:06;99027.95;;;12.03;100.00
55592;BME280;41454;53.396;-1.510;2023-07-30T02:54:34;99031.09;;;12.45;100.00
55592;BME280;41454;53.396;-1.510;2023-07-30T02:57:01;99028.56;;;11.90;100.00
55592;BME280;41454;53.396;-1.510;2023-07-30T02:59:29;99023.32;;;12.09;100.00
55592;BME280;41454;53.396;-1.510;2023-07-30T03:01:56;99030.23;;;12.21;100.00
55592;BME280;41454;53.396;-1.510;2023-07-30T03:04:24;99030.77;;;11.71;100.00
55592;BME280;41454;53.396;-1.510;2023-07-30T03:06:51;99029.57;;;12.34;100.00
55592;BME280;41454;53.396;-1.510;2023-07-30T03:09:19;99031.09;;;12.13;100.00
55592;BME280;41454;53.396;-1.510;2023-07-30T03:11:46;99037.68;;;12.42;100.00
55592;BME280;41454;53.396;-1.510;2023-07-30T03:14:13;99040.92;;;12.21;100.00
55592;BME280;41454;53.396;-1.510;2023-07-30T03:16:39;99035.55;;;12.05;100.00
55592;BME280;41454;53.396;-1.510;2023-07-30T03:19:07;99037.39;;;12.02;100.00
55592;BME280;41454;53.396;-1.510;2023-07-30T03:21:35;99036.82;;;11.95;100.00
55592;BME280;41454;53.396;-1.510;2023-07-30T03:24:02;99038.64;;;12.02;100.00
55592;BME280;41454;53.396;-1.510;2023-07-30T03:26:30;99036.66;;;12.58;100.00
55592;BME280;41454;53.396;-1.510;2023-07-30T03:28:57;99037.90;;;12.54;100.00
55592;BME280;41454;53.396;-1.510;2023-07-30T03:31:25;99040.52;;;12.75;100.00
55592;BME280;41454;53.396;-1.510;2023-07-30T03:33:52;99038.72;;;12.30;100.00
55592;BME280;41454;53.396;-1.510;2023-07-30T03:36:19;99043.36;;;12.49;100.00
55592;BME280;41454;53.396;-1.510;2023-07-30T03:38:46;99037.12;;;12.52;100.00
55592;BME280;41454;53.396;-1.510;2023-07-30T03:41:13;99040.09;;;12.42;100.00
55592;BME280;41454;53.396;-1.510;2023-07-30T03:43:41;99044.85;;;12.62;100.00
55592;BME280;41454;53.396;-1.510;2023-07-30T03:46:08;99041.79;;;12.77;100.00
55592;BME280;41454;53.396;-1.510;2023-07-30T03:48:35;99045.02;;;12.21;100.00
55592;BME280;41454;53.396;-1.510;2023-07-30T03:51:03;99042.42;;;12.00;100.00
55592;BME280;41454;53.396;-1.510;2023-07-30T03:53:30;99047.49;;;12.18;100.00
55592;BME280;41454;53.396;-1.510;2023-07-30T03:55:58;99041.78;;;12.05;100.00
55592;BME280;41454;53.396;-1.510;2023-07-30T03:58:25;99047.85;;;12.13;100.00
55592;BME280;41454;53.396;-1.510;2023-07-30T04:00:53;99053.44;;;11.93;100.00
55592;BME280;41454;53.396;-1.510;2023-07-30T04:03:20;99055.39;;;12.08;100.00
55592;BME280;41454;53.396;-1.510;2023-07-30T04:05:48;99061.09;;;11.90;100.00
55592;BME280;41454;53.396;-1.510;2023-07-30T04:08:16;99053.41;;;11.82;100.00
55592;BME280;41454;53.396;-1.510;2023-07-30T04:10:43;99047.85;;;11.65;100.00
55592;BME280;41454;53.396;-1.510;2023-07-30T04:13:10;99059.89;;;11.86;100.00
55592;BME280;41454;53.396;-1.510;2023-07-30T04:15:37;99058.99;;;12.05;100.00
55592;BME280;41454;53.396;-1.510;2023-07-30T04:18:04;99055.03;;;12.24;100.00
55592;BME280;41454;53.396;-1.510;2023-07-30T04:20:31;99052.86;;;12.64;100.00
55592;BME280;41454;53.396;-1.510;2023-07-30T04:22:59;99053.87;;;12.49;100.00
55592;BME280;41454;53.396;-1.510;2023-07-30T04:25:26;99059.09;;;12.45;100.00
55592;BME280;41454;53.396;-1.510;2023-07-30T04:27:54;99059.72;;;12.26;100.00
55592;BME280;41454;53.396;-1.510;2023-07-30T04:30:20;99068.49;;;12.31;100.00
55592;BME280;41454;53.396;-1.510;2023-07-30T04:32:47;99068.42;;;12.17;100.00
55592;BME280;41454;53.396;-1.510;2023-07-30T04:35:15;99069.57;;;12.29;100.00
55592;BME280;41454;53.396;-1.510;2023-07-30T04:37:42;99074.74;;;12.28;100.00
55592;BME280;41454;53.396;-1.510;2023-07-30T04:40:10;99073.35;;;12.18;100.00
55592;BME280;41454;53.396;-1.510;2023-07-30T04:42:37;99072.54;;;11.86;100.00
55592;BME280;41454;53.396;-1.510;2023-07-30T04:45:05;99064.85;;;12.05;100.00
55592;BME280;41454;53.396;-1.510;2023-07-30T04:47:32;99068.08;;;12.21;100.00
55592;BME280;41454;53.396;-1.510;2023-07-30T04:50:00;99066.88;;;11.88;100.00
55592;BME280;41454;53.396;-1.510;2023-07-30T04:52:27;99065.78;;;11.69;100.00
55592;BME280;41454;53.396;-1.510;2023-07-30T04:54:55;99071.45;;;11.40;100.00
55592;BME280;41454;53.396;-1.510;2023-07-30T04:57:22;99075.69;;;12.29;100.00
55592;BME280;41454;53.396;-1.510;2023-07-30T04:59:49;99083.27;;;12.42;100.00
55592;BME280;41454;53.396;-1.510;2023-07-30T05:02:16;99082.61;;;12.23;100.00
55592;BME280;41454;53.396;-1.510;2023-07-30T05:04:43;99084.33;;;12.27;100.00
55592;BME280;41454;53.396;-1.510;2023-07-30T05:07:10;99086.90;;;11.95;100.00
55592;BME280;41454;53.396;-1.510;2023-07-30T05:09:38;99082.79;;;12.46;100.00
55592;BME280;41454;53.396;-1.510;2023-07-30T05:12:05;99081.80;;;12.37;100.00
55592;BME280;41454;53.396;-1.510;2023-07-30T05:14:32;99086.74;;;12.27;100.00
55592;BME280;41454;53.396;-1.510;2023-07-30T05:16:59;99091.63;;;12.55;100.00
55592;BME280;41454;53.396;-1.510;2023-07-30T05:19:25;99099.29;;;12.04;100.00
55592;BME280;41454;53.396;-1.510;2023-07-30T05:21:52;99090.54;;;12.08;100.00
55592;BME280;41454;53.396;-1.510;2023-07-30T05:24:20;99095.75;;;12.06;100.00
55592;BME280;41454;53.396;-1.510;2023-07-30T05:26:46;99090.57;;;12.33;100.00
55592;BME280;41454;53.396;-1.510;2023-07-30T05:29:13;99090.09;;;12.35;100.00
55592;BME280;41454;53.396;-1.510;2023-07-30T05:31:40;99089.39;;;12.75;100.00
55592;BME280;41454;53.396;-1.510;2023-07-30T05:34:08;99082.77;;;12.21;100.00
55592;BME280;41454;53.396;-1.510;2023-07-30T05:36:35;99081.39;;;12.11;100.00
55592;BME280;41454;53.396;-1.510;2023-07-30T05:39:02;99081.96;;;12.06;100.00
55592;BME280;41454;53.396;-1.510;2023-07-30T05:41:30;99091.01;;;12.27;100.00
55592;BME280;41454;53.396;-1.510;2023-07-30T05:43:57;99094.06;;;12.02;100.00
55592;BME280;41454;53.396;-1.510;2023-07-30T05:46:25;99091.22;;;12.02;100.00
55592;BME280;41454;53.396;-1.510;2023-07-30T05:48:52;99094.02;;;12.05;100.00
55592;BME280;41454;53.396;-1.510;2023-07-30T05:51:18;99094.34;;;12.22;100.00
55592;BME280;41454;53.396;-1.510;2023-07-30T05:53:45;99097.72;;;12.32;100.00
55592;BME280;41454;53.396;-1.510;2023-07-30T05:56:12;99103.63;;;12.35;100.00
55592;BME280;41454;53.396;-1.510;2023-07-30T05:58:39;99105.87;;;12.37;100.00
55592;BME280;41454;53.396;-1.510;2023-07-30T06:01:06;99101.07;;;12.21;100.00
55592;BME280;41454;53.396;-1.510;2023-07-30T06:03:33;99107.84;;;12.16;100.00
55592;BME280;41454;53.396;-1.510;2023-07-30T06:06:01;99094.82;;;12.51;100.00
55592;BME280;41454;53.396;-1.510;2023-07-30T06:08:29;99104.64;;;12.33;100.00
55592;BME280;41454;53.396;-1.510;2023-07-30T06:11:01;99108.18;;;11.96;100.00
55592;BME280;41454;53.396;-1.510;2023-07-30T06:13:29;99109.98;;;12.67;100.00
55592;BME280;41454;53.396;-1.510;2023-07-30T06:15:56;99126.82;;;12.28;100.00
55592;BME280;41454;53.396;-1.510;2023-07-30T06:18:24;99120.78;;;12.29;100.00
55592;BME280;41454;53.396;-1.510;2023-07-30T06:20:51;99128.48;;;11.99;100.00
55592;BME280;41454;53.396;-1.510;2023-07-30T06:23:17;99125.94;;;12.00;100.00
55592;BME280;41454;53.396;-1.510;2023-07-30T06:25:45;99127.83;;;11.79;100.00
55592;BME280;41454;53.396;-1.510;2023-07-30T06:28:12;99124.30;;;12.01;100.00
55592;BME280;41454;53.396;-1.510;2023-07-30T06:30:39;99130.96;;;12.16;100.00
55592;BME280;41454;53.396;-1.510;2023-07-30T06:33:07;99134.30;;;11.66;100.00
55592;BME280;41454;53.396;-1.510;2023-07-30T06:35:34;99135.78;;;11.89;100.00
55592;BME280;41454;53.396;-1.510;2023-07-30T06:38:01;99139.07;;;12.24;100.00
55592;BME280;41454;53.396;-1.510;2023-07-30T06:40:28;99144.40;;;12.16;100.00
55592;BME280;41454;53.396;-1.510;2023-07-30T06:42:56;99143.62;;;11.78;100.00
55592;BME280;41454;53.396;-1.510;2023-07-30T06:45:23;99156.03;;;11.60;100.00
55592;BME280;41454;53.396;-1.510;2023-07-30T06:47:49;99145.53;;;11.97;100.00
55592;BME280;41454;53.396;-1.510;2023-07-30T06:50:16;99141.70;;;12.21;100.00
55592;BME280;41454;53.396;-1.510;2023-07-30T06:52:44;99148.03;;;12.02;100.00
55592;BME280;41454;53.396;-1.510;2023-07-30T06:55:11;99146.91;;;11.42;100.00
55592;BME280;41454;53.396;-1.510;2023-07-30T06:57:38;99154.20;;;11.65;100.00
55592;BME280;41454;53.396;-1.510;2023-07-30T07:00:07;99150.73;;;11.63;100.00
55592;BME280;41454;53.396;-1.510;2023-07-30T07:02:34;99148.53;;;11.29;100.00
55592;BME280;41454;53.396;-1.510;2023-07-30T07:05:01;99157.19;;;11.06;100.00
55592;BME280;41454;53.396;-1.510;2023-07-30T07:07:30;99159.12;;;11.77;100.00
55592;BME280;41454;53.396;-1.510;2023-07-30T07:09:57;99155.37;;;11.78;100.00
55592;BME280;41454;53.396;-1.510;2023-07-30T07:12:25;99154.88;;;11.93;100.00
55592;BME280;41454;53.396;-1.510;2023-07-30T07:14:52;99157.10;;;12.05;100.00
55592;BME280;41454;53.396;-1.510;2023-07-30T07:17:20;99173.11;;;11.98;100.00
55592;BME280;41454;53.396;-1.510;2023-07-30T07:19:47;99170.74;;;11.54;100.00
55592;BME280;41454;53.396;-1.510;2023-07-30T07:22:14;99177.50;;;11.26;100.00
55592;BME280;41454;53.396;-1.510;2023-07-30T07:24:42;99173.81;;;12.04;100.00
55592;BME280;41454;53.396;-1.510;2023-07-30T07:27:08;99177.96;;;11.52;100.00
55592;BME280;41454;53.396;-1.510;2023-07-30T07:29:40;99179.56;;;11.61;100.00
55592;BME280;41454;53.396;-1.510;2023-07-30T07:32:08;99178.72;;;11.58;100.00
55592;BME280;41454;53.396;-1.510;2023-07-30T07:34:35;99185.28;;;11.27;100.00
55592;BME280;41454;53.396;-1.510;2023-07-30T07:37:03;99177.15;;;11.43;100.00
55592;BME280;41454;53.396;-1.510;2023-07-30T07:39:30;99185.84;;;11.91;100.00
55592;BME280;41454;53.396;-1.510;2023-07-30T07:41:59;99186.45;;;11.70;100.00
55592;BME280;41454;53.396;-1.510;2023-07-30T07:44:26;99193.02;;;11.67;100.00
55592;BME280;41454;53.396;-1.510;2023-07-30T07:46:53;99194.02;;;11.69;100.00
55592;BME280;41454;53.396;-1.510;2023-07-30T07:49:20;99191.53;;;11.68;100.00
55592;BME280;41454;53.396;-1.510;2023-07-30T07:51:47;99189.28;;;12.09;100.00
55592;BME280;41454;53.396;-1.510;2023-07-30T07:54:14;99200.72;;;11.50;100.00
55592;BME280;41454;53.396;-1.510;2023-07-30T07:56:46;99200.97;;;12.09;100.00
55592;BME280;41454;53.396;-1.510;2023-07-30T07:59:13;99202.14;;;11.77;100.00
55592;BME280;41454;53.396;-1.510;2023-07-30T08:01:39;99206.65;;;11.48;100.00
55592;BME280;41454;53.396;-1.510;2023-07-30T08:04:06;99208.09;;;11.45;100.00
55592;BME280;41454;53.396;-1.510;2023-07-30T08:06:34;99222.07;;;11.68;100.00
55592;BME280;41454;53.396;-1.510;2023-07-30T08:09:01;99218.46;;;12.52;100.00
55592;BME280;41454;53.396;-1.510;2023-07-30T08:11:28;99229.71;;;12.23;100.00
55592;BME280;41454;53.396;-1.510;2023-07-30T08:13:56;99225.28;;;12.26;100.00
55592;BME280;41454;53.396;-1.510;2023-07-30T08:16:23;99223.80;;;12.66;100.00
55592;BME280;41454;53.396;-1.510;2023-07-30T08:18:51;99213.20;;;12.95;100.00
55592;BME280;41454;53.396;-1.510;2023-07-30T08:21:19;99218.13;;;12.84;100.00
55592;BME280;41454;53.396;-1.510;2023-07-30T08:23:46;99221.01;;;12.66;100.00
55592;BME280;41454;53.396;-1.510;2023-07-30T08:26:14;99217.93;;;11.99;100.00
55592;BME280;41454;53.396;-1.510;2023-07-30T08:28:41;99217.17;;;11.72;100.00
55592;BME280;41454;53.396;-1.510;2023-07-30T08:31:08;99215.20;;;12.29;100.00
55592;BME280;41454;53.396;-1.510;2023-07-30T08:33:35;99220.36;;;12.39;100.00
55592;BME280;41454;53.396;-1.510;2023-07-30T08:36:02;99217.64;;;12.57;100.00
55592;BME280;41454;53.396;-1.510;2023-07-30T08:38:30;99221.91;;;12.43;100.00
55592;BME280;41454;53.396;-1.510;2023-07-30T08:40:57;99215.85;;;12.40;100.00
55592;BME280;41454;53.396;-1.510;2023-07-30T08:43:24;99216.04;;;12.56;100.00
55592;BME280;41454;53.396;-1.510;2023-07-30T08:45:51;99220.55;;;13.06;100.00
55592;BME280;41454;53.396;-1.510;2023-07-30T08:48:19;99214.04;;;13.12;100.00
55592;BME280;41454;53.396;-1.510;2023-07-30T08:50:48;99219.10;;;12.92;100.00
55592;BME280;41454;53.396;-1.510;2023-07-30T08:53:16;99235.51;;;13.14;100.00
55592;BME280;41454;53.396;-1.510;2023-07-30T08:55:45;99228.81;;;12.89;100.00
55592;BME280;41454;53.396;-1.510;2023-07-30T08:58:13;99233.94;;;13.05;100.00
55592;BME280;41454;53.396;-1.510;2023-07-30T09:00:42;99235.40;;;13.24;100.00
55592;BME280;41454;53.396;-1.510;2023-07-30T09:03:10;99250.04;;;12.66;100.00
55592;BME280;41454;53.396;-1.510;2023-07-30T09:05:40;99244.72;;;12.85;100.00
55592;BME280;41454;53.396;-1.510;2023-07-30T09:08:09;99241.79;;;12.51;100.00
55592;BME280;41454;53.396;-1.510;2023-07-30T09:10:36;99236.88;;;12.72;100.00
55592;BME280;41454;53.396;-1.510;2023-07-30T09:13:03;99238.77;;;12.49;100.00
55592;BME280;41454;53.396;-1.510;2023-07-30T09:15:31;99236.43;;;12.91;100.00
55592;BME280;41454;53.396;-1.510;2023-07-30T09:17:58;99233.30;;;13.10;100.00
55592;BME280;41454;53.396;-1.510;2023-07-30T09:20:26;99238.89;;;12.83;100.00
55592;BME280;41454;53.396;-1.510;2023-07-30T09:22:56;99242.88;;;13.27;100.00
55592;BME280;41454;53.396;-1.510;2023-07-30T09:25:23;99239.22;;;13.10;100.00
55592;BME280;41454;53.396;-1.510;2023-07-30T09:27:51;99242.07;;;13.91;100.00
55592;BME280;41454;53.396;-1.510;2023-07-30T09:30:22;99243.22;;;13.85;100.00
55592;BME280;41454;53.396;-1.510;2023-07-30T09:32:51;99246.41;;;13.56;100.00
55592;BME280;41454;53.396;-1.510;2023-07-30T09:35:19;99242.28;;;14.12;100.00
55592;BME280;41454;53.396;-1.510;2023-07-30T09:37:46;99249.81;;;13.74;100.00
55592;BME280;41454;53.396;-1.510;2023-07-30T09:40:15;99250.07;;;13.40;100.00
55592;BME280;41454;53.396;-1.510;2023-07-30T09:42:44;99252.04;;;12.93;100.00
55592;BME280;41454;53.396;-1.510;2023-07-30T09:45:17;99261.53;;;12.80;100.00
55592;BME280;41454;53.396;-1.510;2023-07-30T09:47:47;99265.98;;;12.60;100.00
55592;BME280;41454;53.396;-1.510;2023-07-30T09:50:15;99275.74;;;12.45;100.00
55592;BME280;41454;53.396;-1.510;2023-07-30T09:52:42;99272.71;;;12.88;100.00
55592;BME280;41454;53.396;-1.510;2023-07-30T09:55:10;99273.27;;;12.78;100.00
55592;BME280;41454;53.396;-1.510;2023-07-30T09:57:37;99266.97;;;13.24;100.00
55592;BME280;41454;53.396;-1.510;2023-07-30T10:00:06;99272.75;;;13.34;100.00
55592;BME280;41454;53.396;-1.510;2023-07-30T10:02:37;99273.02;;;13.57;100.00
55592;BME280;41454;53.396;-1.510;2023-07-30T10:05:10;99257.50;;;13.05;100.00
55592;BME280;41454;53.396;-1.510;2023-07-30T10:07:39;99262.73;;;13.18;100.00
55592;BME280;41454;53.396;-1.510;2023-07-30T10:10:10;99268.54;;;13.81;100.00
55592;BME280;41454;53.396;-1.510;2023-07-30T10:12:38;99264.22;;;13.33;100.00
55592;BME280;41454;53.396;-1.510;2023-07-30T10:15:07;99268.40;;;13.70;100.00
55592;BME280;41454;53.396;-1.510;2023-07-30T10:17:35;99261.65;;;13.96;100.00
55592;BME280;41454;53.396;-1.510;2023-07-30T10:20:20;99269.76;;;13.94;100.00
55592;BME280;41454;53.396;-1.510;2023-07-30T10:22:51;99264.83;;;14.17;100.00
55592;BME280;41454;53.396;-1.510;2023-07-30T10:25:21;99264.55;;;14.86;100.00
55592;BME280;41454;53.396;-1.510;2023-07-30T10:27:50;99272.31;;;15.00;100.00
55592;BME280;41454;53.396;-1.510;2023-07-30T10:30:19;99274.99;;;14.34;100.00
55592;BME280;41454;53.396;-1.510;2023-07-30T10:33:04;99270.61;;;14.36;100.00
55592;BME280;41454;53.396;-1.510;2023-07-30T10:35:38;99274.72;;;14.21;100.00
55592;BME280;41454;53.396;-1.510;2023-07-30T10:38:14;99273.04;;;14.64;100.00
55592;BME280;41454;53.396;-1.510;2023-07-30T10:40:41;99267.92;;;14.91;100.00
55592;BME280;41454;53.396;-1.510;2023-07-30T10:43:16;99276.23;;;14.52;100.00
55592;BME280;41454;53.396;-1.510;2023-07-30T10:45:49;99271.90;;;14.77;100.00
55592;BME280;41454;53.396;-1.510;2023-07-30T10:48:16;99267.69;;;14.86;100.00
55592;BME280;41454;53.396;-1.510;2023-07-30T10:50:43;99271.44;;;14.60;100.00
55592;BME280;41454;53.396;-1.510;2023-07-30T10:53:11;99263.88;;;15.01;100.00
55592;BME280;41454;53.396;-1.510;2023-07-30T10:55:38;99275.00;;;15.18;100.00
55592;BME280;41454;53.396;-1.510;2023-07-30T10:58:07;99278.38;;;15.33;100.00
55592;BME280;41454;53.396;-1.510;2023-07-30T11:00:34;99274.37;;;15.59;100.00
55592;BME280;41454;53.396;-1.510;2023-07-30T11:03:01;99280.06;;;15.37;100.00
55592;BME280;41454;53.396;-1.510;2023-07-30T11:05:29;99289.69;;;15.27;100.00
55592;BME280;41454;53.396;-1.510;2023-07-30T11:07:56;99282.45;;;14.73;100.00
55592;BME280;41454;53.396;-1.510;2023-07-30T11:10:24;99298.52;;;14.73;100.00
55592;BME280;41454;53.396;-1.510;2023-07-30T11:12:51;99285.40;;;14.87;100.00
55592;BME280;41454;53.396;-1.510;2023-07-30T11:15:19;99286.88;;;14.99;100.00
55592;BME280;41454;53.396;-1.510;2023-07-30T11:17:46;99289.00;;;15.13;100.00
55592;BME280;41454;53.396;-1.510;2023-07-30T11:20:29;99287.91;;;14.77;100.00
55592;BME280;41454;53.396;-1.510;2023-07-30T11:22:56;99290.74;;;15.70;100.00
55592;BME280;41454;53.396;-1.510;2023-07-30T11:25:23;99277.67;;;15.47;100.00
55592;BME280;41454;53.396;-1.510;2023-07-30T11:27:51;99292.16;;;15.18;100.00
55592;BME280;41454;53.396;-1.510;2023-07-30T11:30:18;99295.86;;;15.19;100.00
55592;BME280;41454;53.396;-1.510;2023-07-30T11:32:45;99296.20;;;15.21;100.00
55592;BME280;41454;53.396;-1.510;2023-07-30T11:35:15;99301.59;;;15.42;100.00
55592;BME280;41454;53.396;-1.510;2023-07-30T11:37:43;99307.92;;;15.12;100.00
55592;BME280;41454;53.396;-1.510;2023-07-30T11:40:11;99304.31;;;14.82;100.00
55592;BME280;41454;53.396;-1.510;2023-07-30T11:42:39;99305.00;;;14.85;100.00
55592;BME280;41454;53.396;-1.510;2023-07-30T11:45:23;99300.47;;;15.55;100.00
55592;BME280;41454;53.396;-1.510;2023-07-30T11:47:50;99299.43;;;15.71;100.00
55592;BME280;41454;53.396;-1.510;2023-07-30T11:50:18;99295.98;;;16.07;100.00
55592;BME280;41454;53.396;-1.510;2023-07-30T11:52:54;99295.28;;;15.87;100.00
55592;BME280;41454;53.396;-1.510;2023-07-30T11:55:21;99290.26;;;15.86;100.00
55592;BME280;41454;53.396;-1.510;2023-07-30T11:57:48;99295.48;;;15.60;100.00
55592;BME280;41454;53.396;-1.510;2023-07-30T12:00:16;99295.94;;;15.75;100.00
55592;BME280;41454;53.396;-1.510;2023-07-30T12:02:47;99300.87;;;15.48;100.00
55592;BME280;41454;53.396;-1.510;2023-07-30T12:05:16;99309.43;;;15.46;100.00
55592;BME280;41454;53.396;-1.510;2023-07-30T12:07:47;99304.57;;;15.76;100.00
55592;BME280;41454;53.396;-1.510;2023-07-30T12:10:14;99305.59;;;15.71;100.00
55592;BME280;41454;53.396;-1.510;2023-07-30T12:12:45;99305.62;;;16.15;100.00
55592;BME280;41454;53.396;-1.510;2023-07-30T12:15:12;99300.20;;;15.84;100.00
55592;BME280;41454;53.396;-1.510;2023-07-30T12:17:39;99306.38;;;16.08;100.00
55592;BME280;41454;53.396;-1.510;2023-07-30T12:20:08;99306.28;;;15.76;100.00
55592;BME280;41454;53.396;-1.510;2023-07-30T12:22:35;99301.33;;;15.39;100.00
55592;BME280;41454;53.396;-1.510;2023-07-30T12:25:03;99304.90;;;15.46;100.00
55592;BME280;41454;53.396;-1.510;2023-07-30T12:27:30;99296.54;;;16.42;100.00
55592;BME280;41454;53.396;-1.510;2023-07-30T12:29:57;99305.24;;;15.58;100.00
55592;BME280;41454;53.396;-1.510;2023-07-30T12:32:24;99296.06;;;16.17;100.00
55592;BME280;41454;53.396;-1.510;2023-07-30T12:34:52;99295.60;;;15.52;100.00
55592;BME280;41454;53.396;-1.510;2023-07-30T12:37:19;99297.58;;;15.98;100.00
55592;BME280;41454;53.396;-1.510;2023-07-30T12:39:47;99298.44;;;15.67;100.00
55592;BME280;41454;53.396;-1.510;2023-07-30T12:42:13;99296.55;;;15.54;100.00
55592;BME280;41454;53.396;-1.510;2023-07-30T12:44:40;99296.28;;;15.37;100.00